Авиационная погода в аэропорту Центральный

СКИДКИ НА СМАРТФОНЫ!

Регион: 
Погода METAR: 
UNOO 091230Z 06006MPS 9999 SCT033CB 25/11 Q1012 R07/CLRD60 NOSIG RMK QFE751
Время наблюдения
2022-08-09T12:30:00Z
Температура C
25.0
Точка росы
11.0
Направление ветра
60
Скорость ветра (узлы)
12
Метео видимость
6.21
Облачность
SCT
Нижняя граница облачности (футы)
3300
Явления погоды
Условия полета
VFR
Аэропорт подробнее: 
SCT – разбросанная отдельная облачность;

Скидки на навигаторы!